Impacts TAF Board INFO
FOR SITUATIONAL AWARENESS. NOT TO BE USED FOR FLIGHT PLANNING PURPOSES.
IDs:

KIAH - Houston/Bush Intl, TX, US

Issued at 0523 UTC 18 Dec 2017
Updated at 0850 UTC 18 Dec 2017
Potential Impact None Slight Moderate High
Time<<18/21Z 18/22Z 18/23Z 19/00Z 19/01Z 19/02Z 19/03Z 19/04Z 19/05Z 19/06Z 19/07Z 19/08Z 19/09Z>>
Type PRVL PRVL PRVL PRVL PRVL PRVL PRVL PRVL PRVL PRVL PRVL PRVL PRVL
VIS 3 3 3 4 4 4 4 4 4 4 4 4 4
CIG 7 7 7 7 7 7 7 7 7 7 7 7 7
Cover OVC OVC OVC OVC OVC OVC OVC OVC OVC OVC OVC OVC OVC
FltCat IFR IFR IFR IFR IFR IFR IFR IFR IFR IFR IFR IFR IFR
WX -RA BR -RA BR -RA BR BR BR BR BR BR BR BR BR BR BR
WDir 90 90 90 100 100 100 100 100 100 100 100 100 100
WSpd 5 5 5 5 5 5 5 5 5 5 5 5 5
WGst -- -- -- -- -- -- -- -- -- -- -- -- --

Raw TAF
KIAH 180523Z 1806/1912 VRB03KT 6SM BR OVC025
  TEMPO 1806/1808 3SM BR OVC007
  FM180800 VRB03KT 2SM -RA BR OVC005
  TEMPO 1810/1814 1SM -RA BR OVC003
  FM181600 09005KT 3SM -RA BR OVC007
  FM190000 10005KT 4SM BR OVC007


METAR Board
Radar Display
Forecast Discussion

FOR SITUATIONAL AWARENESS. NOT TO BE USED FOR FLIGHT PLANNING PURPOSES.